Time;durP1;ratioP1;P1;durP2;ratioP2;P2;SDS_P1;SDS_P2;PMS_P1;PMS_P2;Temp;Humidity;BMP_temperature;BMP_pressure;BME280_temperature;BME280_humidity;BME280_pressure;Samples;Min_cycle;Max_cycle;Signal;HPM_P1;HPM_P2
2021/06/18 00:00:13;;;;;;;35.63;32.15;;;20.60;99.10;;;;;;5085740;28;20036;-62
2021/06/18 00:02:39;;;;;;;36.08;32.78;;;20.60;99.10;;;;;;5051922;28;20094;-62
2021/06/18 00:05:09;;;;;;;38.08;34.20;;;20.60;99.10;;;;;;5084340;28;20491;-62
2021/06/18 00:07:35;;;;;;;38.80;35.05;;;20.60;99.10;;;;;;5089760;28;20032;-62
2021/06/18 00:10:01;;;;;;;39.00;35.50;;;20.40;99.40;;;;;;5089395;28;20043;-62
2021/06/18 00:12:27;;;;;;;39.72;35.67;;;20.30;99.70;;;;;;5084376;28;20040;-62
2021/06/18 00:14:52;;;;;;;39.80;35.90;;;20.20;99.90;;;;;;5088240;28;20075;-62
2021/06/18 00:17:18;;;;;;;40.63;36.92;;;20.00;99.90;;;;;;5087113;28;20040;-62
2021/06/18 00:19:44;;;;;;;41.25;37.30;;;19.90;99.90;;;;;;5088509;28;20097;-62
2021/06/18 00:22:10;;;;;;;42.13;38.03;;;19.80;99.90;;;;;;5087473;28;20040;-62
2021/06/18 00:24:35;;;;;;;42.70;38.67;;;19.60;99.90;;;;;;5085942;28;20048;-62
2021/06/18 00:27:01;;;;;;;44.33;39.78;;;19.50;99.90;;;;;;5077580;28;20070;-62
2021/06/18 00:29:26;;;;;;;43.00;38.67;;;19.40;99.90;;;;;;5086554;28;20082;-62
2021/06/18 00:31:52;;;;;;;42.55;38.38;;;19.30;99.90;;;;;;5087526;28;20049;-62
2021/06/18 00:34:18;;;;;;;44.28;39.92;;;19.30;99.90;;;;;;5088404;28;20044;-62
2021/06/18 00:36:43;;;;;;;45.00;40.80;;;19.30;99.90;;;;;;5087755;28;20094;-62
2021/06/18 00:39:09;;;;;;;44.70;40.50;;;19.30;99.90;;;;;;5088741;28;20040;-62
2021/06/18 00:41:35;;;;;;;42.72;38.63;;;19.20;99.90;;;;;;5090851;28;20067;-62
2021/06/18 00:44:01;;;;;;;46.28;41.67;;;19.20;99.90;;;;;;5088643;28;20083;-62
2021/06/18 00:46:27;;;;;;;44.92;40.47;;;19.10;99.90;;;;;;5090573;28;20056;-62
2021/06/18 00:48:54;;;;;;;45.40;41.13;;;19.00;99.90;;;;;;5090972;28;20032;-62
2021/06/18 00:51:20;;;;;;;45.78;41.08;;;19.00;99.90;;;;;;5089023;28;20039;-62
2021/06/18 00:53:46;;;;;;;44.20;39.83;;;19.00;99.90;;;;;;5091823;28;20032;-62
2021/06/18 00:56:12;;;;;;;42.47;38.33;;;19.00;99.90;;;;;;5089869;28;20044;-62
2021/06/18 00:58:38;;;;;;;44.50;40.22;;;19.10;99.90;;;;;;5089718;28;20048;-63
2021/06/18 01:01:04;;;;;;;46.38;41.78;;;19.10;99.90;;;;;;5092035;28;20352;-62
2021/06/18 01:03:30;;;;;;;44.47;39.80;;;19.20;99.90;;;;;;5072871;28;20039;-62
2021/06/18 01:05:55;;;;;;;44.08;39.72;;;19.20;99.90;;;;;;5088774;28;20051;-62
2021/06/18 01:08:46;;;;;;;43.65;39.65;;;19.20;99.90;;;;;;5084843;28;20115;-62
2021/06/18 01:11:29;;;;;;;43.60;39.33;;;19.30;99.90;;;;;;5088521;28;20381;-62
2021/06/18 01:14:02;;;;;;;44.95;40.60;;;19.30;99.90;;;;;;5088103;28;20028;-62
2021/06/18 01:16:52;;;;;;;49.72;45.05;;;19.30;99.90;;;;;;5089560;28;20066;-62
2021/06/18 01:19:25;;;;;;;50.25;45.17;;;19.10;99.90;;;;;;5081407;28;20481;-62
2021/06/18 01:22:05;;;;;;;46.85;42.40;;;19.00;99.90;;;;;;5088890;28;20044;-62
2021/06/18 01:24:52;;;;;;;42.33;38.22;;;19.00;99.90;;;;;;5074053;28;20052;-62
2021/06/18 01:27:29;;;;;;;42.60;38.47;;;19.00;99.90;;;;;;5088960;28;20462;-62
2021/06/18 01:29:58;;;;;;;44.03;39.70;;;19.10;99.90;;;;;;5075480;28;20329;-62
2021/06/18 01:32:44;;;;;;;46.13;41.90;;;19.10;99.90;;;;;;5088191;28;20036;-62
2021/06/18 01:35:20;;;;;;;45.80;41.35;;;19.10;99.90;;;;;;5091826;28;20461;-62
2021/06/18 01:37:54;;;;;;;47.08;42.30;;;19.10;99.90;;;;;;5072415;28;20031;-62
2021/06/18 01:40:22;;;;;;;47.33;42.72;;;19.20;99.90;;;;;;5070990;28;20118;-62
2021/06/18 01:42:50;;;;;;;46.50;42.05;;;19.20;99.90;;;;;;5090174;28;20051;-62
2021/06/18 01:45:18;;;;;;;44.80;40.40;;;19.20;99.90;;;;;;5089359;28;20043;-62
2021/06/18 01:47:46;;;;;;;44.58;40.35;;;19.20;99.90;;;;;;5088332;28;20130;-62
2021/06/18 01:50:23;;;;;;;46.33;41.63;;;19.20;99.90;;;;;;5087279;28;20036;-62
2021/06/18 01:52:52;;;;;;;46.92;42.22;;;19.20;99.90;;;;;;5089137;28;20484;-62
2021/06/18 01:55:24;;;;;;;50.85;45.90;;;19.20;99.90;;;;;;5070971;28;20352;-62
2021/06/18 01:57:52;;;;;;;51.65;46.38;;;19.20;99.90;;;;;;5088707;28;20043;-62
2021/06/18 02:00:19;;;;;;;52.20;47.17;;;19.10;99.90;;;;;;5086845;28;20085;-62
2021/06/18 02:02:47;;;;;;;47.50;42.80;;;19.00;99.90;;;;;;5089027;28;20048;-62
2021/06/18 02:05:14;;;;;;;49.05;44.22;;;19.00;99.90;;;;;;5089125;28;20040;-62
2021/06/18 02:07:43;;;;;;;50.50;45.08;;;19.00;99.90;;;;;;5089817;28;20032;-62
2021/06/18 02:10:11;;;;;;;48.85;44.03;;;19.10;99.90;;;;;;5082576;28;20075;-62
2021/06/18 02:12:37;;;;;;;46.78;42.00;;;19.10;99.90;;;;;;5090094;28;20092;-62
2021/06/18 02:15:07;;;;;;;49.50;44.58;;;19.00;99.90;;;;;;5087634;28;20409;-62
2021/06/18 02:17:34;;;;;;;52.42;47.15;;;19.00;99.90;;;;;;5088641;28;20044;-62
2021/06/18 02:20:04;;;;;;;51.63;46.42;;;18.90;99.90;;;;;;5086340;28;20043;-62
2021/06/18 02:22:31;;;;;;;53.22;47.90;;;18.80;99.90;;;;;;5089566;28;20503;-62
2021/06/18 02:24:57;;;;;;;51.55;46.35;;;18.80;99.90;;;;;;5089455;28;20075;-62
2021/06/18 02:27:24;;;;;;;48.58;43.80;;;18.80;99.90;;;;;;5088142;28;20040;-62
2021/06/18 02:29:50;;;;;;;48.28;43.45;;;18.90;99.90;;;;;;5086306;28;20110;-62
2021/06/18 02:32:17;;;;;;;50.60;45.70;;;19.00;99.90;;;;;;5088696;28;20385;-62
2021/06/18 02:34:43;;;;;;;49.80;44.65;;;19.00;99.90;;;;;;5070164;28;20028;-62
2021/06/18 02:37:10;;;;;;;50.38;45.38;;;19.00;99.90;;;;;;5088853;28;20050;-62
2021/06/18 02:39:36;;;;;;;49.65;44.72;;;18.80;99.90;;;;;;5089852;28;20105;-62
2021/06/18 02:42:02;;;;;;;48.13;43.60;;;18.80;99.90;;;;;;5088405;28;20452;-62
2021/06/18 02:44:28;;;;;;;47.13;42.60;;;18.90;99.90;;;;;;5087139;28;20127;-62
2021/06/18 02:47:01;;;;;;;48.30;43.67;;;18.80;99.90;;;;;;5088997;28;20143;-62
2021/06/18 02:49:41;;;;;;;49.35;44.58;;;18.80;99.90;;;;;;5087934;28;20473;-62
2021/06/18 02:52:10;;;;;;;49.53;44.22;;;18.80;99.90;;;;;;5085684;28;20100;-62
2021/06/18 02:54:44;;;;;;;47.97;43.17;;;18.90;99.90;;;;;;5090500;28;20036;-62
2021/06/18 02:57:20;;;;;;;47.03;42.22;;;18.90;99.90;;;;;;5073958;28;20592;-62
2021/06/18 03:00:06;;;;;;;48.83;43.83;;;18.90;99.90;;;;;;5087058;28;20038;-62
2021/06/18 03:02:39;;;;;;;50.45;45.42;;;19.00;99.90;;;;;;5078883;28;20169;-62
2021/06/18 03:05:08;;;;;;;50.28;45.28;;;19.00;99.90;;;;;;5088277;28;20481;-62
2021/06/18 03:07:35;;;;;;;54.08;48.70;;;19.00;99.90;;;;;;5089418;28;20089;-62
2021/06/18 03:10:07;;;;;;;55.45;50.08;;;19.00;99.90;;;;;;5087686;28;20365;-62
2021/06/18 03:12:35;;;;;;;54.08;48.70;;;19.00;99.90;;;;;;5088039;28;20036;-62
2021/06/18 03:15:07;;;;;;;53.15;47.97;;;18.80;99.90;;;;;;5089941;28;20088;-62
2021/06/18 03:17:37;;;;;;;50.05;44.63;;;18.80;99.90;;;;;;5082012;28;20041;-62
2021/06/18 03:20:09;;;;;;;51.67;46.70;;;18.90;99.90;;;;;;5079335;28;20039;-62
2021/06/18 03:22:36;;;;;;;;;;;18.90;99.90;;;;;;5087652;28;20048;-62
2021/06/18 03:25:04;;;;;;;53.65;48.63;;;18.90;99.90;;;;;;5087987;28;19924;-62
2021/06/18 03:27:33;;;;;;;52.13;47.05;;;18.90;99.90;;;;;;5088025;28;20067;-62
2021/06/18 03:30:00;;;;;;;52.28;47.08;;;18.80;99.90;;;;;;5089129;28;20378;-62
2021/06/18 03:32:27;;;;;;;53.33;48.25;;;18.90;99.90;;;;;;5068697;28;20039;-62
2021/06/18 03:34:54;;;;;;;52.58;47.38;;;18.90;99.90;;;;;;5087605;28;20036;-62
2021/06/18 03:37:21;;;;;;;52.63;47.42;;;18.90;99.90;;;;;;5088464;28;20036;-62
2021/06/18 03:39:47;;;;;;;56.30;50.75;;;18.90;99.90;;;;;;5086034;28;20038;-62
2021/06/18 03:42:14;;;;;;;53.33;48.17;;;18.90;99.90;;;;;;5068003;28;20040;-62
2021/06/18 03:44:41;;;;;;;57.60;51.95;;;19.00;99.90;;;;;;5074987;28;20111;-62
2021/06/18 03:47:08;;;;;;;58.65;52.42;;;19.00;99.90;;;;;;5088943;28;20040;-62
2021/06/18 03:49:35;;;;;;;57.40;51.63;;;18.80;99.90;;;;;;5087443;28;20050;-62
2021/06/18 03:52:01;;;;;;;52.67;47.50;;;18.80;99.90;;;;;;5086174;28;20397;-62
2021/06/18 03:54:32;;;;;;;53.95;48.67;;;18.90;99.90;;;;;;5088288;28;20032;-62
2021/06/18 03:56:59;;;;;;;56.28;50.47;;;19.00;99.90;;;;;;5087455;28;20473;-62
2021/06/18 03:59:26;;;;;;;59.00;52.97;;;19.00;99.90;;;;;;5088156;28;20520;-62
2021/06/18 04:01:55;;;;;;;52.78;47.55;;;18.90;99.90;;;;;;5066146;28;20036;-62
2021/06/18 04:04:23;;;;;;;53.78;48.33;;;19.00;99.90;;;;;;5070862;28;20048;-62
2021/06/18 04:06:50;;;;;;;55.53;50.13;;;19.10;99.90;;;;;;5062308;28;20032;-62
2021/06/18 04:09:16;;;;;;;52.58;47.35;;;19.10;99.90;;;;;;5087777;28;20036;-62
2021/06/18 04:11:44;;;;;;;53.28;48.28;;;19.30;99.90;;;;;;5086858;28;21308;-62
2021/06/18 04:14:11;;;;;;;48.10;43.58;;;19.40;99.90;;;;;;5089335;28;20119;-62
2021/06/18 04:16:38;;;;;;;51.90;47.08;;;19.60;99.90;;;;;;5090822;28;20032;-62
2021/06/18 04:19:07;;;;;;;53.00;47.95;;;19.80;99.90;;;;;;5075475;28;20043;-62
2021/06/18 04:21:33;;;;;;;51.53;46.38;;;19.90;99.90;;;;;;5091219;28;20047;-62
2021/06/18 04:24:00;;;;;;;52.00;47.03;;;20.10;99.90;;;;;;5073804;28;20093;-62
2021/06/18 04:26:25;;;;;;;47.35;42.90;;;20.20;99.90;;;;;;5092174;28;20040;-62
2021/06/18 04:28:51;;;;;;;50.88;45.97;;;20.30;99.90;;;;;;5090090;28;20039;-62
2021/06/18 04:31:17;;;;;;;52.17;47.25;;;20.40;99.90;;;;;;5091064;28;20455;-62
2021/06/18 04:33:43;;;;;;;49.83;45.03;;;20.40;99.90;;;;;;5091395;28;20119;-62
2021/06/18 04:36:08;;;;;;;50.13;45.13;;;20.10;99.90;;;;;;5091281;28;20175;-62
2021/06/18 04:38:38;;;;;;;51.10;45.90;;;20.10;99.90;;;;;;5091034;28;20040;-62
2021/06/18 04:41:03;;;;;;;46.97;42.58;;;20.00;99.90;;;;;;5089310;28;20036;-62
2021/06/18 04:43:29;;;;;;;45.15;40.80;;;20.10;99.90;;;;;;5092055;28;20439;-62
2021/06/18 04:45:54;;;;;;;46.47;42.13;;;20.20;99.90;;;;;;5090708;28;20032;-63
2021/06/18 04:48:20;;;;;;;42.30;38.40;;;20.30;99.90;;;;;;5084641;28;20097;-63
2021/06/18 04:50:47;;;;;;;43.80;39.70;;;20.50;99.90;;;;;;5089405;28;20032;-62
2021/06/18 04:53:13;;;;;;;39.40;35.80;;;20.70;99.90;;;;;;5090123;28;20492;-62
2021/06/18 04:55:40;;;;;;;38.50;35.13;;;20.80;99.90;;;;;;5074425;28;20071;-62
2021/06/18 04:58:05;;;;;;;38.67;34.97;;;20.90;99.90;;;;;;5090748;28;20040;-62
2021/06/18 05:00:32;;;;;;;36.28;32.97;;;21.00;99.90;;;;;;5090658;28;20036;-63
2021/06/18 05:02:59;;;;;;;34.58;31.38;;;21.20;99.90;;;;;;5089759;28;20052;-62
2021/06/18 05:05:24;;;;;;;33.35;30.35;;;21.40;99.90;;;;;;5087006;28;20419;-62
2021/06/18 05:07:55;;;;;;;34.45;31.33;;;21.50;99.80;;;;;;5073467;28;20036;-62
2021/06/18 05:10:21;;;;;;;34.75;31.42;;;21.60;99.70;;;;;;5090348;28;20056;-62
2021/06/18 05:12:47;;;;;;;32.47;29.48;;;21.60;99.80;;;;;;5090955;28;20040;-62
2021/06/18 05:15:14;;;;;;;33.90;30.80;;;21.70;98.10;;;;;;5072445;28;20040;-62
2021/06/18 05:17:39;;;;;;;33.50;30.50;;;21.60;99.30;;;;;;5081221;28;20054;-62
2021/06/18 05:20:06;;;;;;;34.13;30.83;;;21.50;99.40;;;;;;5095181;28;20036;-62
2021/06/18 05:22:31;;;;;;;31.35;28.52;;;21.30;99.20;;;;;;5086847;28;20490;-62
2021/06/18 05:24:58;;;;;;;31.67;28.40;;;21.40;98.00;;;;;;5076387;28;20060;-64
2021/06/18 05:27:23;;;;;;;31.05;28.15;;;21.40;99.00;;;;;;5085918;28;20477;-64
2021/06/18 05:29:49;;;;;;;34.20;31.15;;;21.40;98.00;;;;;;5072581;28;20042;-62
2021/06/18 05:32:16;;;;;;;31.15;28.45;;;21.30;99.70;;;;;;5090303;28;20097;-62
2021/06/18 05:34:44;;;;;;;32.13;29.13;;;21.40;98.90;;;;;;5090107;28;20428;-62
2021/06/18 05:37:09;;;;;;;32.75;29.73;;;21.50;98.90;;;;;;5089222;28;20398;-62
2021/06/18 05:39:35;;;;;;;28.63;25.92;;;21.60;98.90;;;;;;5097783;22;20063;-66
2021/06/18 05:42:01;;;;;;;29.98;27.30;;;21.80;97.40;;;;;;5082321;28;20040;-66
2021/06/18 05:44:27;;;;;;;30.88;27.88;;;22.10;97.60;;;;;;5074074;28;20072;-66
2021/06/18 05:46:53;;;;;;;26.52;24.25;;;22.10;97.90;;;;;;5084900;28;20414;-65
2021/06/18 05:49:19;;;;;;;29.48;26.70;;;22.30;96.30;;;;;;5071578;28;20047;-66
2021/06/18 05:51:45;;;;;;;29.75;26.77;;;22.30;97.40;;;;;;5067526;28;20032;-66
2021/06/18 05:54:11;;;;;;;31.60;28.33;;;22.30;96.60;;;;;;5070491;28;20059;-65
2021/06/18 05:56:37;;;;;;;30.40;27.27;;;22.30;96.70;;;;;;5053449;28;20047;-65
2021/06/18 05:59:03;;;;;;;28.48;25.98;;;22.20;96.60;;;;;;5081950;28;20546;-65
2021/06/18 06:01:29;;;;;;;31.77;28.92;;;22.50;95.50;;;;;;5072244;28;20044;-66
2021/06/18 06:03:56;;;;;;;33.85;30.88;;;22.50;96.20;;;;;;5068998;28;20060;-65
2021/06/18 06:06:22;;;;;;;32.95;29.98;;;22.30;97.00;;;;;;5069643;28;20119;-65
2021/06/18 06:08:52;;;;;;;35.80;32.60;;;22.20;97.30;;;;;;5073513;28;20121;-66
2021/06/18 06:11:17;;;;;;;35.42;32.03;;;22.10;98.30;;;;;;5070370;28;20123;-66
2021/06/18 06:13:43;;;;;;;36.20;33.00;;;22.20;97.80;;;;;;5082593;28;20135;-66
2021/06/18 06:16:09;;;;;;;37.75;34.25;;;22.00;97.70;;;;;;5072364;28;20037;-66
2021/06/18 06:18:35;;;;;;;33.65;30.88;;;22.00;98.00;;;;;;5074999;28;20033;-66
2021/06/18 06:21:00;;;;;;;33.38;30.50;;;22.00;97.10;;;;;;5068807;28;20064;-66
2021/06/18 06:23:26;;;;;;;30.95;28.45;;;22.10;97.10;;;;;;5070233;28;20068;-66
2021/06/18 06:25:52;;;;;;;36.17;33.03;;;22.00;96.50;;;;;;5075760;28;20436;-66
2021/06/18 06:28:17;;;;;;;34.53;31.65;;;22.00;97.80;;;;;;5083043;28;20047;-66
2021/06/18 06:30:43;;;;;;;33.35;30.45;;;22.00;97.90;;;;;;5079372;28;20481;-66
2021/06/18 06:33:09;;;;;;;35.03;32.00;;;22.10;98.50;;;;;;5076328;28;20119;-66
2021/06/18 06:35:34;;;;;;;33.25;30.25;;;22.70;97.80;;;;;;5073440;28;20041;-66
2021/06/18 06:38:00;;;;;;;28.42;25.83;;;23.70;96.80;;;;;;5069490;28;20040;-66
2021/06/18 06:40:26;;;;;;;31.23;28.55;;;24.90;94.80;;;;;;5069453;28;20056;-66
2021/06/18 06:42:52;;;;;;;30.55;27.90;;;26.00;93.80;;;;;;5069158;28;20052;-66
2021/06/18 06:45:18;;;;;;;30.92;28.27;;;26.20;92.50;;;;;;5069242;28;20029;-66
2021/06/18 06:47:46;;;;;;;29.45;26.98;;;25.90;91.60;;;;;;5068119;28;20037;-67
2021/06/18 06:50:12;;;;;;;28.58;26.08;;;25.80;92.20;;;;;;5074579;28;20115;-68
2021/06/18 06:52:38;;;;;;;27.73;25.33;;;26.10;91.80;;;;;;5075149;28;20123;-64
2021/06/18 06:55:05;;;;;;;26.48;24.23;;;26.50;91.80;;;;;;5051126;28;20041;-68
2021/06/18 06:57:31;;;;;;;26.73;24.58;;;27.40;91.10;;;;;;5069107;28;20041;-65
2021/06/18 06:59:57;;;;;;;26.92;24.42;;;27.50;89.30;;;;;;5068473;28;20037;-64
2021/06/18 07:02:23;;;;;;;28.02;25.73;;;27.40;90.10;;;;;;5069914;28;20040;-64
2021/06/18 07:04:49;;;;;;;27.15;24.75;;;27.30;89.90;;;;;;5052803;28;20422;-65
2021/06/18 07:07:14;;;;;;;28.35;26.05;;;26.90;90.50;;;;;;5070353;28;20032;-65
2021/06/18 07:09:40;;;;;;;26.67;24.35;;;27.20;89.40;;;;;;5052392;28;20435;-64
2021/06/18 07:12:08;;;;;;;28.65;26.33;;;26.60;89.70;;;;;;5070066;28;20102;-67
2021/06/18 07:14:39;;;;;;;27.25;25.15;;;25.10;92.60;;;;;;5070112;28;20052;-65
2021/06/18 07:17:05;;;;;;;25.85;23.70;;;25.20;92.40;;;;;;5067674;28;20464;-65
2021/06/18 07:19:31;;;;;;;28.60;26.17;;;25.40;92.40;;;;;;5057520;28;20316;-65
2021/06/18 07:21:57;;;;;;;26.00;23.92;;;25.20;92.70;;;;;;5090475;28;20040;-65
2021/06/18 07:24:23;;;;;;;25.95;23.75;;;25.40;92.70;;;;;;5056038;28;20451;-65
2021/06/18 07:26:49;;;;;;;24.48;22.58;;;25.80;92.80;;;;;;5070072;28;20102;-66
2021/06/18 07:29:15;;;;;;;25.98;23.77;;;26.60;91.70;;;;;;5052023;28;20036;-66
2021/06/18 07:31:42;;;;;;;23.08;21.25;;;26.30;91.40;;;;;;5068452;28;20044;-66
2021/06/18 07:34:08;;;;;;;22.75;21.05;;;27.50;89.80;;;;;;5069732;28;20429;-65
2021/06/18 07:36:34;;;;;;;21.90;19.90;;;26.90;90.40;;;;;;5069199;28;20033;-65
2021/06/18 07:38:59;;;;;;;22.38;20.60;;;26.40;90.60;;;;;;5065223;28;20466;-65
2021/06/18 07:41:25;;;;;;;20.67;19.08;;;25.40;92.40;;;;;;5064129;28;20504;-66
2021/06/18 07:43:51;;;;;;;22.75;20.80;;;25.50;92.30;;;;;;5077189;28;20039;-66
2021/06/18 07:46:16;;;;;;;23.25;21.45;;;25.60;92.40;;;;;;5069322;28;20444;-66
2021/06/18 07:48:42;;;;;;;22.50;20.60;;;25.00;92.40;;;;;;5071702;28;20059;-65
2021/06/18 07:51:08;;;;;;;21.20;19.45;;;25.10;92.60;;;;;;5077320;28;20039;-66
2021/06/18 07:53:34;;;;;;;21.13;19.48;;;25.40;92.80;;;;;;5068978;28;20123;-65
2021/06/18 07:56:00;;;;;;;20.65;19.13;;;24.70;93.50;;;;;;5072347;28;20041;-66
2021/06/18 07:58:26;;;;;;;18.23;16.70;;;24.40;93.90;;;;;;5070618;28;20448;-65
2021/06/18 08:00:52;;;;;;;18.13;16.60;;;24.30;93.50;;;;;;5073621;28;20090;-65
2021/06/18 08:03:17;;;;;;;18.48;16.98;;;24.30;94.20;;;;;;5065599;28;20045;-65
2021/06/18 08:05:43;;;;;;;17.85;16.38;;;24.00;94.70;;;;;;5068699;28;20059;-66
2021/06/18 08:08:08;;;;;;;17.08;15.57;;;23.90;95.00;;;;;;5072934;28;20036;-66
2021/06/18 08:10:34;;;;;;;17.50;16.02;;;23.90;95.10;;;;;;5071587;28;20037;-66
2021/06/18 08:13:00;;;;;;;17.25;15.95;;;23.60;95.60;;;;;;5072999;28;20523;-66
2021/06/18 08:15:26;;;;;;;16.73;15.43;;;23.80;95.10;;;;;;5072911;28;20033;-65
2021/06/18 08:17:51;;;;;;;16.38;14.82;;;24.00;95.20;;;;;;5072624;28;20470;-65
2021/06/18 08:20:20;;;;;;;16.15;14.95;;;24.00;95.00;;;;;;5085173;28;20078;-66
2021/06/18 08:22:47;;;;;;;16.58;15.27;;;24.10;95.00;;;;;;5064882;28;20045;-66
2021/06/18 08:25:12;;;;;;;17.45;16.17;;;23.90;95.50;;;;;;5075072;28;20032;-65
2021/06/18 08:27:39;;;;;;;16.73;15.23;;;23.50;96.20;;;;;;5072919;28;20048;-65
2021/06/18 08:30:06;;;;;;;16.13;14.93;;;23.30;96.40;;;;;;5072506;28;20041;-65
2021/06/18 08:32:32;;;;;;;15.88;14.68;;;23.50;95.80;;;;;;5070654;28;20038;-65
2021/06/18 08:34:58;;;;;;;15.32;14.10;;;23.80;95.70;;;;;;5072804;28;20040;-66
2021/06/18 08:37:23;;;;;;;15.13;13.95;;;23.90;95.40;;;;;;5076739;28;20064;-65
2021/06/18 08:39:49;;;;;;;14.75;13.65;;;24.20;95.30;;;;;;5067402;28;20532;-65
2021/06/18 08:42:15;;;;;;;15.88;14.38;;;24.30;95.40;;;;;;5070556;28;20044;-65
2021/06/18 08:44:45;;;;;;;15.38;14.20;;;24.30;95.30;;;;;;5074064;28;20039;-65
2021/06/18 08:47:11;;;;;;;15.52;14.23;;;24.20;95.20;;;;;;5070117;28;20079;-65
2021/06/18 08:49:37;;;;;;;15.02;13.88;;;24.60;94.90;;;;;;5071668;28;20470;-66
2021/06/18 08:52:03;;;;;;;18.27;16.77;;;24.90;94.30;;;;;;5087068;28;20038;-65
2021/06/18 08:54:41;;;;;;;19.42;17.88;;;25.20;93.40;;;;;;5072475;28;20040;-65
2021/06/18 08:57:25;;;;;;;16.15;14.82;;;25.20;93.60;;;;;;5070500;28;20051;-65
2021/06/18 08:59:51;;;;;;;17.30;16.00;;;25.40;92.90;;;;;;5071413;28;20068;-65
2021/06/18 09:02:18;;;;;;;17.75;16.38;;;25.20;93.20;;;;;;5072132;28;20072;-65
2021/06/18 09:05:10;;;;;;;17.05;15.75;;;24.80;94.00;;;;;;5072021;28;20028;-65
2021/06/18 09:07:55;;;;;;;14.07;12.77;;;24.70;94.20;;;;;;5072803;28;20033;-66
2021/06/18 09:10:22;;;;;;;15.60;14.40;;;25.30;93.90;;;;;;5072305;28;20036;-65
2021/06/18 09:13:06;;;;;;;16.73;15.38;;;25.60;93.30;;;;;;5070860;28;20341;-65
2021/06/18 09:15:31;;;;;;;15.80;14.52;;;25.70;93.30;;;;;;5071656;28;20366;-66
2021/06/18 09:18:17;;;;;;;13.63;12.63;;;25.90;92.80;;;;;;5070659;28;20094;-65
2021/06/18 09:20:43;;;;;;;13.43;12.43;;;26.30;91.10;;;;;;5075047;28;20071;-65
2021/06/18 09:23:30;;;;;;;10.40;9.60;;;26.40;91.60;;;;;;5067129;28;20363;-65
2021/06/18 09:26:19;;;;;;;10.20;9.45;;;26.40;90.80;;;;;;5058628;28;20394;-65
2021/06/18 09:29:18;;;;;;;9.85;9.10;;;26.40;91.10;;;;;;5058763;28;20105;-65
2021/06/18 09:31:50;;;;;;;11.73;10.75;;;26.30;91.70;;;;;;5020199;28;20053;-65
2021/06/18 09:34:27;;;;;;;;;;;26.40;92.10;;;;;;5083173;28;20043;-66
2021/06/18 09:37:22;;;;;;;10.00;9.10;;;26.70;91.10;;;;;;5073152;28;19916;-66
2021/06/18 09:40:08;;;;;;;11.35;10.43;;;27.10;90.40;;;;;;5072753;28;20163;-65
2021/06/18 09:42:57;;;;;;;9.95;9.25;;;27.40;90.90;;;;;;5069680;28;20469;-65
2021/06/18 09:45:24;;;;;;;11.13;10.18;;;27.60;88.80;;;;;;5067832;28;20052;-65
2021/06/18 09:47:50;;;;;;;8.60;7.97;;;27.90;87.50;;;;;;5058814;28;20040;-65
2021/06/18 09:50:27;;;;;;;9.15;8.32;;;28.10;87.10;;;;;;5066907;28;20064;-65
2021/06/18 09:53:14;;;;;;;8.38;7.57;;;28.30;85.30;;;;;;5079724;28;20049;-65
2021/06/18 09:55:41;;;;;;;8.90;8.10;;;28.60;83.70;;;;;;5067431;28;20059;-65
2021/06/18 09:58:07;;;;;;;8.05;7.40;;;28.70;84.00;;;;;;5069332;28;20040;-65
2021/06/18 10:00:32;;;;;;;10.35;7.95;;;28.70;82.90;;;;;;5070407;28;20032;-65
2021/06/18 10:02:59;;;;;;;8.50;7.40;;;28.40;83.70;;;;;;5071556;28;20489;-66
2021/06/18 10:05:33;;;;;;;8.13;7.43;;;28.40;84.00;;;;;;5067305;28;20036;-65
2021/06/18 10:07:59;;;;;;;7.30;6.55;;;28.50;83.70;;;;;;5073012;28;20041;-65
2021/06/18 10:10:32;;;;;;;7.63;6.93;;;28.50;82.90;;;;;;5067723;28;20124;-65
2021/06/18 10:12:59;;;;;;;8.25;7.55;;;28.50;84.30;;;;;;5069780;28;20325;-66
2021/06/18 10:15:28;;;;;;;17.58;6.28;;;28.40;83.30;;;;;;5077823;28;20063;-66
2021/06/18 10:17:56;;;;;;;5.78;5.30;;;28.50;83.40;;;;;;5076168;28;20048;-66
2021/06/18 10:20:25;;;;;;;6.25;5.72;;;28.50;83.10;;;;;;5077312;28;20094;-66
2021/06/18 10:23:08;;;;;;;6.55;5.20;;;28.40;85.30;;;;;;5071851;28;20051;-66
2021/06/18 10:25:38;;;;;;;6.68;6.07;;;28.80;83.10;;;;;;5070635;28;20477;-66
2021/06/18 10:28:07;;;;;;;6.35;4.93;;;28.70;83.10;;;;;;5049241;28;20048;-66
2021/06/18 10:30:57;;;;;;;5.63;5.13;;;28.80;81.00;;;;;;5057693;28;20041;-66
2021/06/18 10:33:26;;;;;;;7.35;6.57;;;28.70;81.00;;;;;;5060964;28;20052;-66
2021/06/18 10:36:02;;;;;;;6.45;5.95;;;28.50;82.10;;;;;;5053665;28;20371;-66
2021/06/18 10:38:30;;;;;;;6.65;6.05;;;28.30;83.40;;;;;;5066657;28;20067;-66
2021/06/18 10:40:58;;;;;;;7.22;6.63;;;28.30;84.40;;;;;;5069495;28;20052;-66
2021/06/18 10:43:37;;;;;;;6.07;5.57;;;28.30;83.40;;;;;;5051532;28;20048;-66
2021/06/18 10:46:04;;;;;;;7.25;6.50;;;28.40;84.60;;;;;;5077023;28;20548;-66
2021/06/18 10:48:53;;;;;;;6.53;6.13;;;28.00;85.70;;;;;;5070205;28;20040;-66
2021/06/18 10:51:28;;;;;;;7.40;6.68;;;27.90;86.60;;;;;;5068742;28;20037;-66
2021/06/18 10:54:03;;;;;;;7.40;6.70;;;28.00;85.90;;;;;;5064624;28;20040;-66
2021/06/18 10:56:44;;;;;;;8.25;6.30;;;27.80;87.70;;;;;;5063875;28;20040;-66
2021/06/18 10:59:10;;;;;;;7.22;6.55;;;28.00;87.80;;;;;;5072265;28;20451;-66
2021/06/18 11:01:36;;;;;;;6.75;6.10;;;28.10;85.50;;;;;;5086519;28;20036;-66
2021/06/18 11:04:04;;;;;;;15.23;6.55;;;27.90;86.50;;;;;;5066330;28;20048;-66
2021/06/18 11:06:50;;;;;;;7.22;6.07;;;27.90;86.70;;;;;;5060194;28;20509;-66
2021/06/18 11:09:40;;;;;;;7.82;6.93;;;28.10;86.40;;;;;;5063856;28;20045;-66
2021/06/18 11:12:24;;;;;;;8.27;7.57;;;28.20;86.20;;;;;;5061688;28;20043;-66
2021/06/18 11:14:51;;;;;;;8.30;6.88;;;27.60;88.20;;;;;;5068719;28;20047;-66
2021/06/18 11:17:46;;;;;;;9.15;8.02;;;27.20;90.00;;;;;;5073873;28;20064;-66
2021/06/18 11:20:14;;;;;;;7.70;7.00;;;27.10;90.00;;;;;;5068673;28;20040;-66
2021/06/18 11:25:36;;;;;;;6.50;5.72;;;27.30;89.10;;;;;;5071096;28;20482;-66
2021/06/18 11:28:27;;;;;;;6.88;6.28;;;27.50;89.70;;;;;;5068137;28;20072;-66
2021/06/18 11:31:07;;;;;;;5.47;4.82;;;27.60;89.70;;;;;;5061712;28;20551;-67
2021/06/18 11:33:41;;;;;;;5.53;4.40;;;28.10;87.00;;;;;;5068609;28;20033;-66
2021/06/18 11:36:22;;;;;;;4.85;4.40;;;28.50;85.10;;;;;;5068101;28;20647;-66
2021/06/18 11:38:49;;;;;;;4.88;4.47;;;28.40;84.90;;;;;;5075717;28;20028;-66
2021/06/18 11:41:24;;;;;;;6.22;5.63;;;28.20;85.60;;;;;;5079660;28;20425;-66
2021/06/18 11:43:51;;;;;;;25.48;6.45;;;28.30;86.00;;;;;;5082045;28;20036;-66
2021/06/18 11:46:21;;;;;;;7.95;5.40;;;27.70;88.30;;;;;;5073001;28;20033;-66
2021/06/18 11:48:47;;;;;;;6.45;5.70;;;27.90;89.00;;;;;;5067145;28;20043;-66
2021/06/18 11:51:27;;;;;;;5.90;5.40;;;28.10;87.70;;;;;;5070346;28;20044;-65
2021/06/18 11:53:53;;;;;;;7.10;6.38;;;28.50;86.40;;;;;;5064336;28;20197;-66
2021/06/18 11:56:19;;;;;;;6.40;5.82;;;28.70;85.60;;;;;;5066438;28;20135;-65
2021/06/18 11:58:47;;;;;;;6.88;6.38;;;28.70;84.80;;;;;;5071973;28;20543;-66
2021/06/18 12:01:16;;;;;;;6.50;5.30;;;28.80;84.10;;;;;;5061634;28;20041;-66
2021/06/18 12:03:45;;;;;;;7.25;6.65;;;29.00;83.90;;;;;;5060606;28;20068;-66
2021/06/18 12:06:20;;;;;;;8.13;7.55;;;28.90;85.60;;;;;;5073580;28;20036;-67
2021/06/18 12:09:06;;;;;;;8.90;8.05;;;28.20;87.30;;;;;;5075143;28;20043;-67
2021/06/18 12:11:41;;;;;;;6.20;5.63;;;28.10;88.20;;;;;;5069685;28;20054;-66
2021/06/18 12:14:09;;;;;;;7.63;6.85;;;28.60;85.80;;;;;;5072615;28;20032;-66
2021/06/18 12:16:37;;;;;;;6.90;6.30;;;28.90;84.30;;;;;;5085861;28;20036;-66
2021/06/18 12:19:23;;;;;;;7.43;6.72;;;29.30;83.20;;;;;;5069613;28;20040;-67
2021/06/18 12:22:06;;;;;;;6.50;6.00;;;29.50;81.90;;;;;;5067425;28;20047;-66
2021/06/18 12:24:34;;;;;;;5.60;4.93;;;29.50;81.70;;;;;;5070314;28;20476;-66
2021/06/18 12:27:02;;;;;;;5.05;4.57;;;29.30;81.10;;;;;;5051807;28;20342;-66
2021/06/18 12:29:30;;;;;;;8.38;4.78;;;29.20;80.80;;;;;;5069438;28;20037;-66
2021/06/18 12:31:58;;;;;;;5.40;5.00;;;28.90;82.20;;;;;;5052222;28;20052;-66
2021/06/18 12:34:24;;;;;;;5.32;4.93;;;29.00;81.40;;;;;;5071512;28;20445;-67
2021/06/18 12:36:57;;;;;;;6.25;4.75;;;28.90;82.40;;;;;;5072407;28;20094;-66
2021/06/18 12:39:23;;;;;;;4.30;3.85;;;29.20;79.80;;;;;;5072954;28;20048;-66
2021/06/18 12:41:49;;;;;;;5.93;5.45;;;29.30;80.80;;;;;;5077802;28;20052;-66
2021/06/18 12:44:15;;;;;;;6.60;5.97;;;29.30;79.40;;;;;;5077983;28;20032;-66
2021/06/18 12:46:40;;;;;;;7.15;6.65;;;28.90;81.40;;;;;;5078835;28;20079;-66